Time;durP1;ratioP1;P1;durP2;ratioP2;P2;SDS_P1;SDS_P2;PMS_P1;PMS_P2;Temp;Humidity;BMP_temperature;BMP_pressure;BME280_temperature;BME280_humidity;BME280_pressure;Samples;Min_cycle;Max_cycle;Signal;HPM_P1;HPM_P2
2024/04/18 00:01:52;;;;;;;3.50;1.90;;;4.20;1.00;;;;;;5531085;26;20224;-44
2024/04/18 00:04:18;;;;;;;2.63;2.43;;;4.20;1.00;;;;;;5530968;25;20328;-45
2024/04/18 00:06:44;;;;;;;2.73;1.93;;;4.20;1.00;;;;;;5531227;25;20223;-44
2024/04/18 00:09:09;;;;;;;2.83;1.93;;;4.20;1.00;;;;;;5530045;25;20216;-44
2024/04/18 00:11:35;;;;;;;3.40;1.83;;;4.20;1.00;;;;;;5529968;25;20266;-45
2024/04/18 00:14:00;;;;;;;2.13;1.93;;;4.20;1.00;;;;;;5530612;25;20228;-45
2024/04/18 00:16:26;;;;;;;2.60;2.37;;;4.20;1.00;;;;;;5531032;26;20626;-44
2024/04/18 00:18:51;;;;;;;3.13;1.97;;;4.20;1.00;;;;;;5531010;25;20227;-45
2024/04/18 00:21:17;;;;;;;2.70;1.77;;;4.20;1.00;;;;;;5498600;26;20227;-50
2024/04/18 00:23:43;;;;;;;5.30;2.67;;;4.20;1.00;;;;;;5531035;25;20262;-45
2024/04/18 00:26:08;;;;;;;3.23;2.70;;;4.20;1.00;;;;;;5531039;25;20931;-44
2024/04/18 00:28:34;;;;;;;3.80;2.80;;;4.20;1.00;;;;;;5530741;25;20509;-45
2024/04/18 00:31:00;;;;;;;2.53;1.97;;;4.10;1.00;;;;;;5530698;25;20243;-45
2024/04/18 00:33:25;;;;;;;2.53;2.00;;;4.00;1.00;;;;;;5530930;25;20231;-44
2024/04/18 00:35:51;;;;;;;2.87;2.57;;;4.10;1.00;;;;;;5530983;25;20459;-45
2024/04/18 00:38:16;;;;;;;3.60;2.50;;;4.10;1.00;;;;;;5530681;25;20262;-45
2024/04/18 00:40:42;;;;;;;2.70;2.00;;;4.10;1.00;;;;;;5530379;26;20227;-45
2024/04/18 00:43:08;;;;;;;2.50;2.30;;;4.10;1.00;;;;;;5530782;26;20287;-44
2024/04/18 00:45:33;;;;;;;2.43;1.83;;;4.10;1.00;;;;;;5529185;26;20495;-45
2024/04/18 00:47:59;;;;;;;4.37;2.40;;;4.10;1.00;;;;;;5497134;26;20231;-44
2024/04/18 00:50:26;;;;;;;3.10;2.30;;;4.10;1.00;;;;;;5530466;26;20482;-45
2024/04/18 00:52:51;;;;;;;3.33;2.40;;;4.10;1.00;;;;;;5497996;26;20223;-44
2024/04/18 00:55:17;;;;;;;4.10;2.77;;;4.10;1.00;;;;;;5498123;26;20516;-45
2024/04/18 00:57:43;;;;;;;3.17;2.50;;;4.10;1.00;;;;;;5530456;26;20219;-45
2024/04/18 01:00:09;;;;;;;3.77;3.37;;;4.10;1.00;;;;;;5530439;25;20216;-45
2024/04/18 01:02:35;;;;;;;2.80;2.60;;;4.10;1.00;;;;;;5530101;25;20436;-45
2024/04/18 01:05:02;;;;;;;3.03;2.27;;;4.10;1.00;;;;;;5495006;26;20562;-44
2024/04/18 01:07:27;;;;;;;2.90;2.10;;;4.20;1.00;;;;;;5529460;25;20610;-45
2024/04/18 01:09:53;;;;;;;3.20;1.90;;;4.20;1.00;;;;;;5530501;25;20505;-42
2024/04/18 01:12:19;;;;;;;3.57;2.77;;;4.20;1.00;;;;;;5530225;26;20501;-45
2024/04/18 01:14:44;;;;;;;4.10;2.30;;;4.20;1.00;;;;;;5530275;25;20220;-45
2024/04/18 01:17:10;;;;;;;3.53;2.40;;;4.30;1.00;;;;;;5530319;25;20228;-44
2024/04/18 01:19:36;;;;;;;2.53;2.33;;;4.30;1.00;;;;;;5528435;25;20314;-45
2024/04/18 01:22:02;;;;;;;2.70;2.50;;;4.40;1.00;;;;;;5497667;26;20841;-45
2024/04/18 01:24:28;;;;;;;2.70;2.23;;;4.40;1.00;;;;;;5530051;25;20505;-45
2024/04/18 01:26:53;;;;;;;2.73;2.07;;;4.40;1.00;;;;;;5529967;26;20220;-45
2024/04/18 01:29:19;;;;;;;2.30;2.10;;;4.50;1.00;;;;;;5530139;26;20216;-45
2024/04/18 01:31:44;;;;;;;3.50;2.70;;;4.50;1.00;;;;;;5529957;25;20613;-45
2024/04/18 01:34:10;;;;;;;2.70;2.40;;;4.50;1.00;;;;;;5529953;25;20278;-44
2024/04/18 01:36:36;;;;;;;2.17;1.83;;;4.50;99.90;;;;;;5530135;25;20239;-45
2024/04/18 01:39:01;;;;;;;2.53;2.30;;;4.40;99.90;;;;;;5529565;25;20211;-45
2024/04/18 01:41:27;;;;;;;2.77;2.03;;;4.40;1.00;;;;;;5530050;25;20211;-45
2024/04/18 01:43:52;;;;;;;2.50;2.30;;;4.50;99.90;;;;;;5466153;25;20518;-45
2024/04/18 01:46:18;;;;;;;3.67;2.60;;;4.40;1.00;;;;;;5529145;26;20224;-44
2024/04/18 01:48:45;;;;;;;2.30;2.10;;;4.40;1.00;;;;;;5529534;25;20278;-44
2024/04/18 01:51:11;;;;;;;3.77;2.43;;;4.50;1.00;;;;;;5529104;25;20249;-45
2024/04/18 01:53:37;;;;;;;3.50;2.70;;;4.50;1.00;;;;;;5496363;26;20444;-44
2024/04/18 01:56:02;;;;;;;3.50;2.87;;;4.40;1.00;;;;;;5529283;25;20243;-45
2024/04/18 01:58:28;;;;;;;2.83;2.50;;;4.30;1.00;;;;;;5525950;25;20228;-44
2024/04/18 02:00:53;;;;;;;2.83;2.23;;;4.30;1.00;;;;;;5527427;26;20461;-45
2024/04/18 02:03:19;;;;;;;2.60;2.40;;;4.30;1.00;;;;;;5529106;25;20254;-45
2024/04/18 02:05:45;;;;;;;3.77;2.57;;;4.20;1.00;;;;;;5529439;25;20511;-45
2024/04/18 02:08:10;;;;;;;2.23;2.03;;;4.20;1.00;;;;;;5496646;26;20516;-45
2024/04/18 02:10:36;;;;;;;2.83;2.30;;;4.10;1.00;;;;;;5528852;25;20275;-44
2024/04/18 02:13:01;;;;;;;2.90;2.47;;;4.20;1.00;;;;;;5528939;25;20231;-45
2024/04/18 02:21:15;;;;;;;4.13;3.13;;;4.10;1.00;;;;;;5526631;26;20742;-45
2024/04/18 02:23:40;;;;;;;3.00;2.70;;;4.10;1.00;;;;;;5529022;26;20266;-45
2024/04/18 02:26:06;;;;;;;3.00;2.60;;;4.20;1.00;;;;;;5526078;25;20223;-44
2024/04/18 02:28:31;;;;;;;3.70;3.40;;;4.10;1.00;;;;;;5526957;26;20602;-45
2024/04/18 02:31:03;;;;;;;3.57;3.23;;;4.10;1.00;;;;;;5526699;26;20227;-45
2024/04/18 02:33:29;;;;;;;3.63;3.13;;;4.10;1.00;;;;;;5528687;26;20281;-44
2024/04/18 02:35:54;;;;;;;3.70;3.30;;;4.00;1.00;;;;;;5529105;26;20993;-45
2024/04/18 02:38:20;;;;;;;3.63;3.23;;;3.90;1.00;;;;;;5528919;25;20444;-45
2024/04/18 02:40:46;;;;;;;3.67;3.30;;;3.80;1.00;;;;;;5528510;26;20258;-45
2024/04/18 02:43:11;;;;;;;5.77;3.90;;;3.80;1.00;;;;;;5528902;26;20512;-45
2024/04/18 02:45:37;;;;;;;4.30;3.40;;;3.60;1.00;;;;;;5528317;26;20271;-45
2024/04/18 02:48:02;;;;;;;4.83;3.77;;;3.60;1.00;;;;;;5528288;26;20224;-45
2024/04/18 02:50:28;;;;;;;3.37;3.07;;;3.70;1.00;;;;;;5528514;26;20270;-45
2024/04/18 02:52:54;;;;;;;5.43;3.80;;;3.70;1.00;;;;;;5528326;26;20254;-45
2024/04/18 02:55:19;;;;;;;4.07;3.40;;;3.70;1.00;;;;;;5528832;26;20606;-45
2024/04/18 02:57:45;;;;;;;4.30;3.80;;;3.70;1.00;;;;;;5495462;26;20219;-45
2024/04/18 03:00:11;;;;;;;2.93;2.73;;;3.70;1.00;;;;;;5527579;26;20761;-45
2024/04/18 03:02:36;;;;;;;3.93;3.50;;;3.60;1.00;;;;;;5528164;26;20675;-45
2024/04/18 03:05:02;;;;;;;3.40;3.10;;;3.70;1.00;;;;;;5528482;26;20203;-45
2024/04/18 03:07:28;;;;;;;4.10;3.30;;;3.70;1.00;;;;;;5527852;26;20215;-45
2024/04/18 03:09:53;;;;;;;3.33;3.03;;;3.70;1.00;;;;;;5527922;26;20263;-44
2024/04/18 03:12:19;;;;;;;13.07;11.77;;;3.70;1.00;;;;;;5530748;26;20277;-45
2024/04/18 03:14:45;;;;;;;5.90;5.40;;;3.80;1.00;;;;;;5530493;26;20231;-45
2024/04/18 03:17:10;;;;;;;4.30;3.90;;;3.80;1.00;;;;;;5530711;26;20258;-45
2024/04/18 03:19:36;;;;;;;17.07;15.40;;;3.80;1.00;;;;;;5530177;26;20208;-45
2024/04/18 03:22:01;;;;;;;10.97;10.03;;;3.90;1.00;;;;;;5530283;26;20235;-45
2024/04/18 03:24:27;;;;;;;5.90;5.37;;;3.90;1.00;;;;;;5498134;26;20223;-45
2024/04/18 03:26:53;;;;;;;5.13;4.63;;;3.90;1.00;;;;;;5530660;26;20223;-45
2024/04/18 03:29:18;;;;;;;5.10;4.60;;;4.00;1.00;;;;;;5530872;25;20223;-45
2024/04/18 03:31:48;;;;;;;4.60;3.73;;;4.00;1.00;;;;;;5530455;26;20265;-43
2024/04/18 03:34:14;;;;;;;8.30;7.60;;;4.10;1.00;;;;;;5530432;26;20288;-45
2024/04/18 03:36:51;;;;;;;6.53;5.93;;;4.10;1.00;;;;;;5530444;26;20498;-45
2024/04/18 03:39:18;;;;;;;5.60;4.43;;;4.20;1.00;;;;;;5530450;26;20227;-45
2024/04/18 03:41:45;;;;;;;4.00;3.67;;;4.20;1.00;;;;;;5529793;26;20873;-45
2024/04/18 03:44:11;;;;;;;4.60;4.20;;;4.30;1.00;;;;;;5529069;26;20456;-45
2024/04/18 03:46:37;;;;;;;4.70;3.60;;;4.30;1.00;;;;;;5530557;26;20444;-45
2024/04/18 03:49:03;;;;;;;4.70;3.97;;;4.30;1.00;;;;;;5530512;26;20232;-45
2024/04/18 03:51:30;;;;;;;4.30;3.90;;;4.30;1.00;;;;;;5531451;26;20452;-45
2024/04/18 03:53:56;;;;;;;6.03;3.50;;;4.30;1.00;;;;;;5530660;26;20277;-45
2024/04/18 03:56:21;;;;;;;4.50;4.10;;;4.30;1.00;;;;;;5530538;26;20507;-45
2024/04/18 03:58:48;;;;;;;4.43;4.03;;;4.30;1.00;;;;;;5497122;26;20816;-45
2024/04/18 04:01:14;;;;;;;4.20;3.80;;;4.30;1.00;;;;;;5530728;26;20231;-45
2024/04/18 04:03:39;;;;;;;4.30;3.90;;;4.30;1.00;;;;;;5530075;26;20445;-45
2024/04/18 04:06:05;;;;;;;4.87;4.27;;;4.20;1.00;;;;;;5495933;26;20235;-44
2024/04/18 04:08:31;;;;;;;3.70;3.40;;;4.20;1.00;;;;;;5529133;25;20336;-45
2024/04/18 04:10:56;;;;;;;4.10;3.70;;;4.20;1.00;;;;;;5528384;26;20681;-45
2024/04/18 04:13:22;;;;;;;4.17;3.77;;;4.20;1.00;;;;;;5528169;26;20262;-44
2024/04/18 04:15:48;;;;;;;3.83;3.50;;;4.20;1.00;;;;;;5530462;26;20497;-45
2024/04/18 04:18:14;;;;;;;4.67;4.17;;;4.20;1.00;;;;;;5530530;26;20228;-45
2024/04/18 04:20:43;;;;;;;3.60;3.30;;;4.10;1.00;;;;;;5459971;26;20584;-44
2024/04/18 04:23:09;;;;;;;4.00;3.60;;;4.10;1.00;;;;;;5491630;26;20217;-45
2024/04/18 04:25:35;;;;;;;4.47;4.07;;;4.20;1.00;;;;;;5492976;26;20482;-45
2024/04/18 04:28:00;;;;;;;7.17;5.77;;;4.20;1.00;;;;;;5492850;26;20262;-45
2024/04/18 04:30:26;;;;;;;6.70;5.10;;;4.30;1.00;;;;;;5492604;26;20283;-45
2024/04/18 04:32:52;;;;;;;4.97;4.47;;;4.30;1.00;;;;;;5490824;26;20710;-45
2024/04/18 04:35:17;;;;;;;3.90;3.47;;;4.30;1.00;;;;;;5491316;26;20221;-45
2024/04/18 04:37:43;;;;;;;4.83;4.13;;;4.20;1.00;;;;;;5490448;26;20297;-45
2024/04/18 04:40:09;;;;;;;4.23;3.90;;;4.30;1.00;;;;;;5490747;26;20228;-45
2024/04/18 04:42:34;;;;;;;4.67;4.27;;;4.30;1.00;;;;;;5490486;26;20232;-45
2024/04/18 04:45:00;;;;;;;4.60;4.07;;;4.30;1.00;;;;;;5489527;26;20244;-45
2024/04/18 04:47:25;;;;;;;4.50;4.10;;;4.30;1.00;;;;;;5490338;26;20224;-45
2024/04/18 04:49:51;;;;;;;5.27;4.40;;;4.30;1.00;;;;;;5491250;26;20932;-44
2024/04/18 04:52:17;;;;;;;5.30;4.80;;;4.40;1.00;;;;;;5491366;26;20254;-45
2024/04/18 04:54:43;;;;;;;4.60;4.20;;;4.40;1.00;;;;;;5488588;26;21084;-45
2024/04/18 04:57:10;;;;;;;5.20;4.53;;;4.40;1.00;;;;;;5487605;26;20224;-45
2024/04/18 04:59:36;;;;;;;5.10;4.60;;;4.40;1.00;;;;;;5485838;26;20462;-45
2024/04/18 05:02:02;;;;;;;5.43;4.80;;;4.40;1.00;;;;;;5488783;26;20637;-45
2024/04/18 05:04:29;;;;;;;5.87;5.30;;;4.40;1.00;;;;;;5485917;26;20777;-45
2024/04/18 05:06:55;;;;;;;6.20;5.60;;;4.40;1.00;;;;;;5487350;26;20924;-45
2024/04/18 05:09:21;;;;;;;5.47;4.97;;;4.50;1.00;;;;;;5485022;26;20450;-45
2024/04/18 05:11:47;;;;;;;5.87;5.27;;;4.50;1.00;;;;;;5485519;26;20518;-45
2024/04/18 05:14:13;;;;;;;6.43;5.83;;;4.50;1.00;;;;;;5483967;26;20514;-45
2024/04/18 05:16:39;;;;;;;6.60;5.30;;;4.50;1.00;;;;;;5484622;26;20787;-44
2024/04/18 05:19:05;;;;;;;6.47;5.87;;;4.60;1.00;;;;;;5480821;26;20505;-43
2024/04/18 05:21:31;;;;;;;7.73;7.07;;;4.70;1.00;;;;;;5504123;26;20239;-44
2024/04/18 05:23:57;;;;;;;8.30;7.50;;;4.70;1.00;;;;;;5518310;26;20692;-44
2024/04/18 05:26:29;;;;;;;7.97;6.93;;;4.70;1.00;;;;;;5520209;26;20452;-44
2024/04/18 05:31:40;;;;;;;7.00;6.37;;;4.80;1.00;;;;;;5520456;26;20497;-44
2024/04/18 05:34:07;;;;;;;7.17;6.47;;;4.80;1.00;;;;;;5517424;26;20527;-43
2024/04/18 05:36:33;;;;;;;5.90;5.40;;;4.90;1.00;;;;;;5541196;25;20535;-43
2024/04/18 05:38:58;;;;;;;5.90;5.33;;;4.90;1.00;;;;;;5561430;25;20512;-43
2024/04/18 05:41:25;;;;;;;5.53;5.03;;;4.70;99.90;;;;;;5561348;25;20499;-43
2024/04/18 05:43:51;;;;;;;6.00;5.40;;;4.70;1.00;;;;;;5561785;25;20588;-43
2024/04/18 05:46:17;;;;;;;6.60;5.47;;;4.80;1.00;;;;;;5563168;25;20440;-44
2024/04/18 05:48:44;;;;;;;6.77;5.83;;;4.80;99.90;;;;;;5560507;25;20518;-43
2024/04/18 05:51:10;;;;;;;5.67;5.17;;;4.90;1.00;;;;;;5560695;25;20608;-43
2024/04/18 05:53:35;;;;;;;7.60;6.90;;;4.90;1.00;;;;;;5562112;25;20459;-44
2024/04/18 05:56:01;;;;;;;7.10;5.40;;;5.10;1.00;;;;;;5561167;25;20211;-42
2024/04/18 05:58:28;;;;;;;6.33;5.50;;;5.20;1.00;;;;;;5560105;25;20203;-43
2024/04/18 06:00:57;;;;;;;6.40;5.80;;;5.30;99.90;;;;;;5562574;25;20273;-43
2024/04/18 06:03:24;;;;;;;6.60;6.00;;;5.40;99.90;;;;;;5561259;25;20447;-43
2024/04/18 06:05:50;;;;;;;6.23;5.63;;;5.50;99.90;;;;;;5562269;25;20499;-43
2024/04/18 06:08:16;;;;;;;5.27;4.87;;;5.60;99.90;;;;;;5562864;25;20845;-44
2024/04/18 06:10:42;;;;;;;5.40;5.00;;;5.60;99.90;;;;;;5560801;25;20516;-43
2024/04/18 06:13:08;;;;;;;5.17;4.67;;;5.60;99.90;;;;;;5561761;25;20540;-43
2024/04/18 06:15:35;;;;;;;5.97;5.50;;;5.70;99.90;;;;;;5529915;25;20898;-43
2024/04/18 06:18:00;;;;;;;5.10;4.60;;;5.80;72.60;;;;;;5521037;26;20702;-43
2024/04/18 06:20:27;;;;;;;5.10;4.70;;;5.90;14.60;;;;;;5525919;26;20464;-43
2024/04/18 06:22:53;;;;;;;4.03;3.73;;;5.90;1.00;;;;;;5524098;25;20215;-44
2024/04/18 06:25:18;;;;;;;4.43;4.00;;;5.90;1.00;;;;;;5502171;26;20806;-43
2024/04/18 06:27:44;;;;;;;5.03;4.53;;;5.90;1.00;;;;;;5524503;26;20547;-44
2024/04/18 06:30:11;;;;;;;4.80;4.40;;;5.90;1.00;;;;;;5508697;26;20237;-44
2024/04/18 06:32:37;;;;;;;4.70;4.30;;;6.00;1.00;;;;;;5483694;26;20939;-44
2024/04/18 06:35:03;;;;;;;5.43;4.97;;;6.10;14.70;;;;;;5483144;26;20478;-44
2024/04/18 06:37:29;;;;;;;7.60;6.20;;;6.10;1.00;;;;;;5486734;26;20442;-43
2024/04/18 06:39:54;;;;;;;6.40;5.90;;;6.10;7.50;;;;;;5486866;26;20513;-44
2024/04/18 06:42:20;;;;;;;8.50;6.10;;;6.10;39.40;;;;;;5489515;26;20635;-44
2024/04/18 06:44:46;;;;;;;6.70;6.10;;;6.20;75.50;;;;;;5489875;26;20233;-44
2024/04/18 06:47:11;;;;;;;6.10;5.60;;;6.20;89.30;;;;;;5490249;26;20229;-44
2024/04/18 06:49:37;;;;;;;6.20;5.60;;;6.30;99.90;;;;;;5492093;26;20239;-44
2024/04/18 06:52:03;;;;;;;6.63;6.03;;;6.40;92.10;;;;;;5492941;26;20216;-44
2024/04/18 06:54:29;;;;;;;6.10;5.60;;;6.50;70.00;;;;;;5491019;26;20485;-44
2024/04/18 06:56:54;;;;;;;6.00;5.47;;;6.60;1.00;;;;;;5491016;26;21168;-44
2024/04/18 06:59:20;;;;;;;6.17;5.67;;;6.70;1.00;;;;;;5493319;26;20221;-44
2024/04/18 07:01:46;;;;;;;5.27;4.80;;;6.80;1.00;;;;;;5491705;26;20270;-44
2024/04/18 07:04:11;;;;;;;6.50;5.80;;;7.00;1.00;;;;;;5493217;26;20225;-44
2024/04/18 07:06:37;;;;;;;6.80;6.20;;;7.10;1.00;;;;;;5492775;26;20501;-44
2024/04/18 07:09:03;;;;;;;5.70;5.20;;;7.20;99.90;;;;;;5490623;26;20283;-44
2024/04/18 07:11:29;;;;;;;6.07;5.53;;;7.40;99.90;;;;;;5492062;26;20320;-44
2024/04/18 07:13:54;;;;;;;6.17;5.57;;;7.60;99.90;;;;;;5491862;26;20449;-44
2024/04/18 07:16:20;;;;;;;5.80;5.30;;;7.70;6.20;;;;;;5493136;26;20491;-44
2024/04/18 07:18:46;;;;;;;5.20;4.80;;;7.90;8.40;;;;;;5493157;26;20283;-44
2024/04/18 07:21:14;;;;;;;4.40;4.10;;;8.10;99.90;;;;;;5492086;26;20240;-44
2024/04/18 07:23:40;;;;;;;4.37;4.07;;;8.40;99.90;;;;;;5492360;26;20292;-44
2024/04/18 07:26:06;;;;;;;4.13;3.73;;;9.00;1.00;;;;;;5488822;26;20445;-44
2024/04/18 07:28:31;;;;;;;4.00;3.70;;;9.40;1.00;;;;;;5490415;26;20494;-44
2024/04/18 07:30:57;;;;;;;3.07;2.87;;;9.70;1.00;;;;;;5490124;26;20445;-44
2024/04/18 07:33:22;;;;;;;2.90;2.70;;;9.90;99.90;;;;;;5490401;26;20634;-44
2024/04/18 07:35:55;;;;;;;4.33;3.93;;;9.90;1.00;;;;;;5459203;26;20260;-44
2024/04/18 07:38:21;;;;;;;3.67;3.37;;;9.70;1.00;;;;;;5490047;26;20225;-44
2024/04/18 07:40:47;;;;;;;4.93;4.50;;;9.50;99.90;;;;;;5490253;26;20467;-44
2024/04/18 07:43:12;;;;;;;5.30;4.90;;;9.10;99.90;;;;;;5499267;26;20277;-44
2024/04/18 07:45:38;;;;;;;4.17;3.87;;;8.60;18.80;;;;;;5517650;26;20287;-44
2024/04/18 07:48:06;;;;;;;4.37;3.97;;;8.00;1.00;;;;;;5492407;26;20240;-44
2024/04/18 07:50:31;;;;;;;3.83;3.53;;;7.60;99.90;;;;;;5524572;26;20468;-44
2024/04/18 07:52:57;;;;;;;2.33;2.13;;;7.30;65.10;;;;;;5528086;25;20755;-40
2024/04/18 07:55:23;;;;;;;3.80;2.77;;;7.00;1.00;;;;;;5507557;26;20331;-41
2024/04/18 07:57:48;;;;;;;2.33;2.13;;;6.90;1.00;;;;;;5491017;26;20290;-42
2024/04/18 08:00:14;;;;;;;2.40;2.20;;;6.60;1.00;;;;;;5490682;26;21277;-39
2024/04/18 08:02:39;;;;;;;3.33;3.03;;;6.40;1.00;;;;;;5492015;26;20353;-35
2024/04/18 08:05:05;;;;;;;2.60;2.37;;;6.20;1.00;;;;;;5460397;26;20325;-44
2024/04/18 08:07:31;;;;;;;5.30;2.70;;;6.00;1.00;;;;;;5491604;26;20321;-44
2024/04/18 08:09:57;;;;;;;2.37;2.17;;;5.90;1.00;;;;;;5510408;26;20707;-44
2024/04/18 08:12:22;;;;;;;3.63;3.33;;;5.80;1.00;;;;;;5492925;26;20278;-44
2024/04/18 08:14:48;;;;;;;4.60;3.83;;;6.00;1.00;;;;;;5525041;26;20553;-44
2024/04/18 08:17:14;;;;;;;4.53;4.13;;;6.40;20.40;;;;;;5491101;26;20462;-45
2024/04/18 08:19:40;;;;;;;4.57;4.17;;;6.90;1.00;;;;;;5491950;26;20464;-44
2024/04/18 08:22:05;;;;;;;3.90;3.50;;;7.60;1.00;;;;;;5490147;26;20233;-43
2024/04/18 08:24:33;;;;;;;4.57;4.17;;;8.40;1.00;;;;;;5495742;26;20311;-45
2024/04/18 08:26:59;;;;;;;4.23;3.93;;;9.10;1.00;;;;;;5460092;26;20228;-45
2024/04/18 08:29:26;;;;;;;4.43;4.03;;;9.60;1.00;;;;;;5491929;26;20515;-44
2024/04/18 08:31:53;;;;;;;4.60;4.30;;;9.80;99.90;;;;;;5491310;26;20595;-45
2024/04/18 08:34:20;;;;;;;4.73;4.30;;;9.80;1.00;;;;;;5507384;26;20512;-44
2024/04/18 08:36:45;;;;;;;4.63;4.13;;;9.80;1.00;;;;;;5490387;26;20553;-45
2024/04/18 08:39:11;;;;;;;4.73;4.03;;;9.80;99.90;;;;;;5515625;26;20506;-44
2024/04/18 08:41:37;;;;;;;4.10;3.80;;;9.70;99.90;;;;;;5498138;26;20239;-44
2024/04/18 08:44:03;;;;;;;5.80;3.50;;;9.60;99.90;;;;;;5475882;26;20220;-45
2024/04/18 08:46:36;;;;;;;4.93;4.03;;;9.40;1.00;;;;;;5526518;26;20216;-44
2024/04/18 08:49:03;;;;;;;6.83;4.30;;;9.10;99.90;;;;;;5462251;26;20512;-44
2024/04/18 08:51:29;;;;;;;6.13;4.00;;;9.00;99.90;;;;;;5424020;26;20535;-45
2024/04/18 08:53:55;;;;;;;4.73;4.30;;;9.10;99.90;;;;;;5456239;26;20529;-45
2024/04/18 08:56:22;;;;;;;4.70;4.33;;;9.20;99.90;;;;;;5456528;26;20232;-45
2024/04/18 08:58:48;;;;;;;5.20;4.80;;;9.50;1.00;;;;;;5488688;26;20217;-45
2024/04/18 09:01:14;;;;;;;3.87;3.57;;;9.90;1.00;;;;;;5490336;26;20493;-44
2024/04/18 09:03:40;;;;;;;3.67;3.23;;;10.20;1.00;;;;;;5491668;26;20630;-45
2024/04/18 09:06:06;;;;;;;3.80;3.40;;;10.10;61.00;;;;;;5491525;26;20772;-45
2024/04/18 09:08:32;;;;;;;4.27;3.60;;;9.80;1.00;;;;;;5499072;26;20472;-45
2024/04/18 09:11:02;;;;;;;4.53;3.77;;;9.40;1.00;;;;;;5493378;26;20440;-45
2024/04/18 09:13:29;;;;;;;3.60;3.27;;;9.00;99.90;;;;;;5506458;26;20244;-45
2024/04/18 09:15:54;;;;;;;3.47;3.17;;;8.70;99.90;;;;;;5487739;26;20888;-45
2024/04/18 09:18:22;;;;;;;6.73;4.23;;;8.50;1.00;;;;;;5455586;26;20594;-45
2024/04/18 09:20:48;;;;;;;3.73;3.43;;;8.50;99.90;;;;;;5488696;26;20473;-45
2024/04/18 09:23:14;;;;;;;4.30;3.37;;;8.70;99.90;;;;;;5490217;26;20506;-45
2024/04/18 09:25:41;;;;;;;4.33;3.93;;;9.00;99.90;;;;;;5520873;26;20255;-45
2024/04/18 09:28:06;;;;;;;3.27;2.97;;;9.30;99.90;;;;;;5497774;26;20296;-45
2024/04/18 09:30:33;;;;;;;3.20;2.90;;;9.80;99.90;;;;;;5489115;26;20465;-45
2024/04/18 09:33:00;;;;;;;3.03;2.73;;;10.30;96.20;;;;;;5489494;26;20283;-45
2024/04/18 09:35:30;;;;;;;3.00;2.70;;;11.10;99.90;;;;;;5487956;26;20577;-45
2024/04/18 09:37:56;;;;;;;4.20;2.70;;;12.10;99.90;;;;;;5489127;26;20434;-44
2024/04/18 09:40:23;;;;;;;2.80;2.60;;;12.80;1.00;;;;;;5469147;26;20448;-45
2024/04/18 09:43:20;;;;;;;3.60;3.30;;;13.40;99.90;;;;;;5490701;26;21008;-45
2024/04/18 09:46:00;;;;;;;3.50;3.20;;;13.40;99.90;;;;;;5525356;26;20639;-45
2024/04/18 09:48:26;;;;;;;2.93;2.73;;;12.90;99.90;;;;;;5488338;26;20461;-45
2024/04/18 09:50:52;;;;;;;3.70;3.40;;;12.80;99.90;;;;;;5521405;26;20537;-45
2024/04/18 09:53:19;;;;;;;4.87;4.40;;;12.90;99.90;;;;;;5500650;26;20478;-45
2024/04/18 09:55:45;;;;;;;4.10;3.80;;;13.30;99.90;;;;;;5523095;26;20215;-46
2024/04/18 09:58:11;;;;;;;4.33;3.97;;;14.20;74.90;;;;;;5477422;26;20773;-46
2024/04/18 10:00:37;;;;;;;3.77;3.30;;;15.50;1.00;;;;;;5455068;26;20438;-45
2024/04/18 10:03:06;;;;;;;3.63;3.33;;;16.90;1.00;;;;;;5489267;26;20500;-45
2024/04/18 10:05:32;;;;;;;3.50;3.00;;;18.00;1.00;;;;;;5490831;26;20495;-45
2024/04/18 10:07:59;;;;;;;3.40;3.10;;;19.40;1.00;;;;;;5426610;26;20540;-45
2024/04/18 10:10:25;;;;;;;3.50;3.20;;;20.70;1.00;;;;;;5500405;25;20542;-45
2024/04/18 10:12:52;;;;;;;4.70;4.37;;;22.50;1.00;;;;;;5561831;25;20983;-46
2024/04/18 10:15:19;;;;;;;3.50;3.00;;;23.50;1.00;;;;;;5497329;25;20864;-45
2024/04/18 10:17:45;;;;;;;3.03;2.83;;;23.90;1.00;;;;;;5560530;25;20471;-45
2024/04/18 10:20:13;;;;;;;4.70;3.03;;;22.10;1.00;;;;;;5559191;25;21027;-45
2024/04/18 10:22:38;;;;;;;3.13;2.83;;;20.70;1.00;;;;;;5561224;25;20269;-45
2024/04/18 10:25:05;;;;;;;3.63;3.33;;;19.20;1.00;;;;;;5559761;25;20672;-45
2024/04/18 10:27:41;;;;;;;3.40;3.10;;;17.80;1.00;;;;;;5559842;25;20238;-44
2024/04/18 10:30:13;;;;;;;3.03;2.73;;;16.50;1.00;;;;;;5559380;25;20516;-45
2024/04/18 10:32:42;;;;;;;3.20;2.90;;;15.80;1.00;;;;;;5563855;25;20912;-45
2024/04/18 10:35:08;;;;;;;3.60;3.30;;;16.40;1.00;;;;;;5562051;25;20451;-45
2024/04/18 10:37:33;;;;;;;3.97;3.07;;;17.10;1.00;;;;;;5560629;25;20499;-44
2024/04/18 10:39:59;;;;;;;3.87;3.57;;;18.90;1.00;;;;;;5560632;25;20493;-45
2024/04/18 10:42:25;;;;;;;3.67;3.37;;;20.00;1.00;;;;;;5560077;25;20301;-45
2024/04/18 10:44:51;;;;;;;3.93;3.60;;;20.40;1.00;;;;;;5558400;25;20616;-44
2024/04/18 10:47:20;;;;;;;3.60;3.30;;;20.90;1.00;;;;;;5560322;25;20652;-45
2024/04/18 10:49:46;;;;;;;3.90;3.60;;;20.40;1.00;;;;;;5556154;25;20226;-45
2024/04/18 10:52:14;;;;;;;5.73;4.17;;;19.00;1.00;;;;;;5558577;25;20941;-45
2024/04/18 10:54:40;;;;;;;4.00;3.70;;;17.90;1.00;;;;;;5557260;25;20248;-45
2024/04/18 10:57:07;;;;;;;4.47;4.03;;;16.50;1.00;;;;;;5558703;25;21088;-45
2024/04/18 10:59:37;;;;;;;4.20;3.80;;;14.80;1.00;;;;;;5558444;25;20721;-45
2024/04/18 11:02:06;;;;;;;4.63;4.23;;;13.70;1.00;;;;;;5561009;25;20489;-44
2024/04/18 11:04:32;;;;;;;5.10;4.40;;;12.50;1.00;;;;;;5558493;25;20451;-43
2024/04/18 11:06:58;;;;;;;4.07;3.30;;;11.80;1.00;;;;;;5561039;25;20424;-45
2024/04/18 11:09:23;;;;;;;3.60;3.30;;;11.10;1.00;;;;;;5560815;25;20762;-45
2024/04/18 11:11:49;;;;;;;3.43;3.13;;;10.60;99.90;;;;;;5528514;25;20273;-45
2024/04/18 11:14:17;;;;;;;3.77;3.47;;;10.20;99.90;;;;;;5557595;25;20709;-44
2024/04/18 11:16:43;;;;;;;3.53;2.97;;;9.90;1.00;;;;;;5560880;25;20451;-45
2024/04/18 11:19:09;;;;;;;4.30;3.57;;;9.70;99.90;;;;;;5556783;25;20439;-45
2024/04/18 11:21:35;;;;;;;3.70;3.40;;;9.60;1.00;;;;;;5525830;25;20549;-44
2024/04/18 11:24:00;;;;;;;3.77;3.13;;;9.50;99.90;;;;;;5560039;25;20227;-44
2024/04/18 11:26:27;;;;;;;3.80;2.83;;;9.40;1.00;;;;;;5528522;25;20266;-45
2024/04/18 11:28:56;;;;;;;3.80;3.27;;;9.30;1.00;;;;;;5559582;25;20227;-45
2024/04/18 11:31:22;;;;;;;4.33;3.93;;;9.50;99.90;;;;;;5561303;25;20454;-45
2024/04/18 11:33:47;;;;;;;4.93;4.40;;;9.90;1.00;;;;;;5562107;25;20486;-45
2024/04/18 11:36:14;;;;;;;4.37;3.97;;;10.40;1.00;;;;;;5559348;25;20443;-45
2024/04/18 11:38:39;;;;;;;4.80;4.30;;;11.70;1.00;;;;;;5562667;25;20635;-45
2024/04/18 11:41:05;;;;;;;5.03;4.63;;;12.70;99.90;;;;;;5555851;25;20462;-45
2024/04/18 11:43:31;;;;;;;5.30;4.80;;;13.60;99.90;;;;;;5561601;25;20265;-45
2024/04/18 11:45:56;;;;;;;5.40;4.87;;;14.60;40.30;;;;;;5563527;25;20448;-45
2024/04/18 11:48:23;;;;;;;4.20;3.90;;;16.40;1.00;;;;;;5532431;25;20314;-45
2024/04/18 11:50:49;;;;;;;5.20;4.77;;;18.60;1.00;;;;;;5563797;25;20227;-45
2024/04/18 11:53:15;;;;;;;4.00;3.70;;;20.30;1.00;;;;;;5565356;25;21210;-45
2024/04/18 11:55:41;;;;;;;4.67;4.27;;;21.40;1.00;;;;;;5563270;25;20514;-44
2024/04/18 11:58:06;;;;;;;4.80;4.40;;;22.80;1.00;;;;;;5530172;25;20234;-45
2024/04/18 12:00:35;;;;;;;4.30;4.00;;;23.10;1.00;;;;;;5565232;25;20218;-45
2024/04/18 12:03:01;;;;;;;4.13;3.63;;;22.20;1.00;;;;;;5565241;25;20307;-44
2024/04/18 12:05:27;;;;;;;3.70;3.40;;;20.30;1.00;;;;;;5563941;25;20953;-45
2024/04/18 12:07:53;;;;;;;3.73;3.43;;;18.40;1.00;;;;;;5563557;25;20253;-45
2024/04/18 12:10:19;;;;;;;3.77;3.47;;;16.50;1.00;;;;;;5565582;25;20289;-46
2024/04/18 12:12:44;;;;;;;3.83;3.53;;;15.10;1.00;;;;;;5531518;25;20443;-44
2024/04/18 12:15:10;;;;;;;5.07;4.67;;;14.20;1.00;;;;;;5563281;25;20304;-45
2024/04/18 12:17:36;;;;;;;4.83;4.43;;;13.80;1.00;;;;;;5564723;25;20230;-44
2024/04/18 12:20:02;;;;;;;4.83;4.33;;;14.00;1.00;;;;;;5563020;25;20497;-44
2024/04/18 12:22:28;;;;;;;5.17;4.67;;;13.90;1.00;;;;;;5562246;25;20899;-43
2024/04/18 12:24:54;;;;;;;5.47;4.37;;;14.10;1.00;;;;;;5557362;25;20438;-44
2024/04/18 12:27:20;;;;;;;5.20;4.80;;;14.30;1.00;;;;;;5560471;25;20257;-44
2024/04/18 12:29:47;;;;;;;4.87;4.47;;;14.30;1.00;;;;;;5562504;25;20717;-44
2024/04/18 12:32:21;;;;;;;4.10;3.80;;;14.40;1.00;;;;;;5499631;25;20713;-44
2024/04/18 12:34:49;;;;;;;5.23;4.47;;;14.40;1.00;;;;;;5560820;25;20496;-44
2024/04/18 12:37:15;;;;;;;4.23;3.83;;;13.90;1.00;;;;;;5529776;25;20690;-44
2024/04/18 12:39:43;;;;;;;3.33;3.03;;;13.70;1.00;;;;;;5562476;25;20549;-45
2024/04/18 12:42:09;;;;;;;3.70;3.40;;;13.70;1.00;;;;;;5562747;25;20273;-44
2024/04/18 12:44:35;;;;;;;3.00;2.80;;;13.80;1.00;;;;;;5563215;25;20510;-44
2024/04/18 12:47:01;;;;;;;4.23;3.83;;;13.80;1.00;;;;;;5565503;25;20956;-44
2024/04/18 12:49:26;;;;;;;10.73;9.63;;;13.40;1.00;;;;;;5563001;25;20230;-44
2024/04/18 12:51:53;;;;;;;23.60;21.10;;;13.20;1.00;;;;;;5561654;25;20210;-44
2024/04/18 12:54:18;;;;;;;10.17;8.63;;;12.70;1.00;;;;;;5563049;25;20237;-44
2024/04/18 12:56:47;;;;;;;6.70;6.00;;;12.30;1.00;;;;;;5560830;25;20448;-44
2024/04/18 12:59:14;;;;;;;5.47;4.97;;;11.90;1.00;;;;;;5529524;25;20672;-44
2024/04/18 13:01:41;;;;;;;5.27;4.83;;;11.60;1.00;;;;;;5561706;25;20462;-45
2024/04/18 13:04:06;;;;;;;4.67;4.20;;;11.50;5.80;;;;;;5561773;25;20521;-45
2024/04/18 13:06:32;;;;;;;5.67;5.17;;;11.30;97.40;;;;;;5563826;25;20850;-45